Time;durP1;ratioP1;P1;durP2;ratioP2;P2;SDS_P1;SDS_P2;PMS_P1;PMS_P2;Temp;Humidity;BMP_temperature;BMP_pressure;BME280_temperature;BME280_humidity;BME280_pressure;Samples;Min_cycle;Max_cycle;Signal;HPM_P1;HPM_P2
2022/02/25 00:01:58;;;;;;;27.90;2.97;;;10.50;79.50;;;;;;5007872;28;20022;-72
2022/02/25 00:04:23;;;;;;;27.13;2.80;;;10.50;79.80;;;;;;5007681;28;20185;-72
2022/02/25 00:06:49;;;;;;;23.70;2.47;;;10.50;79.20;;;;;;5007748;28;20496;-72
2022/02/25 00:09:14;;;;;;;13.15;2.20;;;10.50;79.00;;;;;;5007074;28;20695;-71
2022/02/25 00:11:40;;;;;;;10.35;1.63;;;10.50;79.20;;;;;;5007593;28;20037;-72
2022/02/25 00:14:05;;;;;;;10.52;1.60;;;10.50;79.20;;;;;;5006168;28;20033;-71
2022/02/25 00:16:31;;;;;;;12.07;1.73;;;10.50;79.40;;;;;;5006306;28;20025;-72
2022/02/25 00:18:56;;;;;;;58.17;5.28;;;10.50;79.40;;;;;;5007011;28;20598;-71
2022/02/25 00:21:22;;;;;;;17.92;2.30;;;10.50;79.20;;;;;;5006396;28;20022;-73
2022/02/25 00:23:47;;;;;;;41.13;4.15;;;10.50;79.00;;;;;;5007561;28;20049;-72
2022/02/25 00:26:13;;;;;;;20.92;2.55;;;10.50;79.30;;;;;;5005514;28;20055;-71
2022/02/25 00:28:38;;;;;;;13.65;2.08;;;10.50;78.60;;;;;;5006208;28;20520;-73
2022/02/25 00:31:04;;;;;;;10.90;1.63;;;10.50;79.20;;;;;;5006248;28;20397;-71
2022/02/25 00:33:29;;;;;;;13.20;2.03;;;10.50;78.80;;;;;;5007538;28;20030;-72
2022/02/25 00:35:55;;;;;;;12.07;1.50;;;10.50;79.00;;;;;;5005497;28;20038;-71
2022/02/25 00:38:21;;;;;;;14.13;1.95;;;10.50;79.00;;;;;;5022157;28;20143;-73
2022/02/25 00:40:47;;;;;;;16.05;2.30;;;10.40;78.90;;;;;;5022674;28;20022;-71
2022/02/25 00:43:12;;;;;;;10.50;1.52;;;10.50;79.00;;;;;;5002475;28;20053;-72
2022/02/25 00:45:38;;;;;;;9.07;1.88;;;10.40;78.50;;;;;;4987127;28;20109;-72
2022/02/25 00:48:04;;;;;;;11.80;1.98;;;10.50;79.00;;;;;;5005606;28;20120;-72
2022/02/25 00:50:30;;;;;;;10.73;1.83;;;10.40;78.60;;;;;;5005338;28;20026;-72
2022/02/25 00:52:56;;;;;;;9.32;1.70;;;10.50;78.70;;;;;;5007120;28;20030;-72
2022/02/25 00:55:22;;;;;;;8.50;2.47;;;10.40;78.70;;;;;;5006325;28;20136;-72
2022/02/25 00:57:49;;;;;;;6.80;1.63;;;10.40;78.50;;;;;;5006879;28;20030;-72
2022/02/25 01:00:17;;;;;;;6.80;1.80;;;10.40;78.20;;;;;;5006847;28;20032;-70
2022/02/25 01:02:43;;;;;;;9.30;1.90;;;10.40;78.40;;;;;;5006621;28;20113;-72
2022/02/25 01:05:09;;;;;;;6.68;1.92;;;10.40;78.10;;;;;;5006431;28;20026;-72
2022/02/25 01:07:39;;;;;;;9.73;2.65;;;10.40;78.00;;;;;;5006564;28;20036;-73
2022/02/25 01:10:06;;;;;;;7.35;1.90;;;10.50;78.20;;;;;;5005547;28;20032;-72
2022/02/25 01:12:32;;;;;;;4.80;1.80;;;10.40;77.80;;;;;;5006408;28;20041;-72
2022/02/25 01:14:58;;;;;;;6.97;2.00;;;10.40;77.80;;;;;;5006098;28;20032;-72
2022/02/25 01:17:23;;;;;;;6.90;2.10;;;10.40;77.90;;;;;;5006387;28;20030;-72
2022/02/25 01:19:50;;;;;;;6.78;2.00;;;10.40;77.90;;;;;;5005318;28;20481;-73
2022/02/25 01:22:16;;;;;;;6.15;1.80;;;10.40;77.80;;;;;;5005026;28;20045;-72
2022/02/25 01:24:42;;;;;;;7.65;1.90;;;10.40;77.90;;;;;;5006086;28;20037;-72
2022/02/25 01:27:08;;;;;;;5.28;1.98;;;10.40;78.10;;;;;;5004775;28;20034;-72
2022/02/25 01:29:34;;;;;;;4.30;2.00;;;10.40;77.90;;;;;;5004559;28;20045;-72
2022/02/25 01:32:00;;;;;;;4.72;1.90;;;10.40;77.60;;;;;;5006474;28;20030;-72
2022/02/25 01:34:26;;;;;;;7.10;2.15;;;10.40;77.80;;;;;;5001490;28;20030;-73
2022/02/25 01:36:52;;;;;;;8.32;2.10;;;10.40;77.70;;;;;;4985360;28;20053;-71
2022/02/25 01:39:17;;;;;;;4.32;1.98;;;10.40;77.60;;;;;;4992488;28;20033;-72
2022/02/25 01:41:43;;;;;;;5.57;2.22;;;10.40;77.50;;;;;;5005336;28;20121;-72
2022/02/25 01:44:14;;;;;;;5.60;1.92;;;10.40;77.50;;;;;;5004041;28;20108;-71
2022/02/25 01:46:44;;;;;;;9.25;2.30;;;10.40;77.60;;;;;;5004551;28;20022;-72
2022/02/25 01:49:09;;;;;;;4.05;2.00;;;10.40;77.70;;;;;;5004237;28;20038;-71
2022/02/25 01:51:35;;;;;;;32.78;3.88;;;10.40;77.50;;;;;;5004222;28;20045;-71
2022/02/25 01:54:01;;;;;;;7.70;1.92;;;10.40;77.40;;;;;;5006127;28;20040;-72
2022/02/25 01:56:26;;;;;;;5.88;2.00;;;10.40;77.20;;;;;;5005420;28;20046;-71
2022/02/25 01:58:52;;;;;;;5.55;2.10;;;10.40;77.30;;;;;;5005784;28;20562;-71
2022/02/25 02:01:18;;;;;;;5.18;2.10;;;10.40;77.40;;;;;;5004479;28;20021;-72
2022/02/25 02:03:43;;;;;;;4.93;2.42;;;10.40;77.40;;;;;;5001037;28;20030;-72
2022/02/25 02:06:08;;;;;;;7.13;2.50;;;10.40;77.20;;;;;;4985912;28;20493;-72
2022/02/25 02:08:35;;;;;;;6.47;2.40;;;10.40;77.10;;;;;;4985720;28;20053;-72
2022/02/25 02:11:01;;;;;;;5.07;2.30;;;10.40;76.90;;;;;;4985064;28;20057;-72
2022/02/25 02:13:26;;;;;;;4.75;2.30;;;10.40;77.10;;;;;;4997983;28;20111;-72
2022/02/25 02:15:52;;;;;;;7.10;2.70;;;10.40;77.30;;;;;;5000979;28;20549;-72
2022/02/25 02:18:17;;;;;;;4.72;2.40;;;10.40;77.10;;;;;;5000813;28;20038;-72
2022/02/25 02:20:43;;;;;;;6.45;2.80;;;10.40;77.30;;;;;;4986293;28;20030;-72
2022/02/25 02:23:08;;;;;;;4.95;2.38;;;10.40;77.10;;;;;;5001305;28;20034;-72
2022/02/25 02:25:34;;;;;;;7.95;2.42;;;10.40;77.20;;;;;;4985946;28;20034;-72
2022/02/25 02:28:18;;;;;;;7.80;2.83;;;10.40;77.00;;;;;;5008958;28;20041;-72
2022/02/25 02:30:44;;;;;;;8.25;2.70;;;10.30;76.90;;;;;;5003604;28;20029;-72
2022/02/25 02:33:10;;;;;;;8.07;2.67;;;10.40;77.00;;;;;;5005329;28;20037;-73
2022/02/25 02:35:36;;;;;;;10.52;2.90;;;10.40;77.00;;;;;;5004981;28;20037;-72
2022/02/25 02:38:02;;;;;;;7.50;3.05;;;10.40;77.00;;;;;;5003916;28;20084;-72
2022/02/25 02:40:28;;;;;;;6.22;2.80;;;10.40;77.00;;;;;;5003486;28;20037;-73
2022/02/25 02:42:54;;;;;;;5.80;2.75;;;10.40;76.90;;;;;;5005401;28;20038;-72
2022/02/25 02:45:20;;;;;;;5.15;2.80;;;10.40;77.10;;;;;;5000085;28;20576;-72
2022/02/25 02:47:46;;;;;;;6.05;2.70;;;10.40;77.50;;;;;;5000887;28;20034;-72
2022/02/25 02:50:12;;;;;;;5.93;3.03;;;10.40;77.10;;;;;;4985763;28;20085;-72
2022/02/25 02:52:38;;;;;;;5.05;3.20;;;10.40;76.90;;;;;;4985942;28;20030;-72
2022/02/25 02:55:04;;;;;;;5.28;2.90;;;10.30;76.90;;;;;;4999553;28;20855;-72
2022/02/25 02:57:30;;;;;;;6.60;3.20;;;10.40;77.10;;;;;;5008442;28;20034;-72
2022/02/25 02:59:55;;;;;;;5.63;2.85;;;10.40;77.10;;;;;;5004242;28;20030;-71
2022/02/25 03:02:21;;;;;;;7.05;2.90;;;10.40;77.20;;;;;;4997646;28;20069;-72
2022/02/25 03:04:47;;;;;;;8.88;3.25;;;10.40;77.20;;;;;;5008267;28;20033;-71
2022/02/25 03:07:12;;;;;;;16.15;3.95;;;10.30;76.90;;;;;;5008338;28;20022;-72
2022/02/25 03:09:39;;;;;;;18.08;3.97;;;10.30;77.00;;;;;;5007824;28;20038;-72
2022/02/25 03:12:05;;;;;;;12.35;3.58;;;10.30;77.00;;;;;;5007920;28;20057;-72
2022/02/25 03:14:31;;;;;;;9.32;3.20;;;10.30;77.10;;;;;;5007303;28;20046;-71
2022/02/25 03:16:56;;;;;;;21.40;4.20;;;10.30;76.90;;;;;;5009056;28;20117;-73
2022/02/25 03:19:22;;;;;;;36.78;6.15;;;10.40;77.10;;;;;;5008582;28;20105;-72
2022/02/25 03:21:48;;;;;;;30.15;5.32;;;10.30;76.90;;;;;;5023999;28;20030;-73
2022/02/25 03:24:13;;;;;;;25.27;4.53;;;10.30;77.00;;;;;;5006863;28;20106;-70
2022/02/25 03:26:39;;;;;;;21.13;4.20;;;10.30;77.00;;;;;;5023750;28;20030;-72
2022/02/25 03:29:04;;;;;;;9.75;3.25;;;10.40;77.00;;;;;;5023653;28;20515;-70
2022/02/25 03:31:30;;;;;;;14.35;3.17;;;10.30;77.10;;;;;;5008642;28;20029;-72
2022/02/25 03:33:56;;;;;;;10.00;2.97;;;10.30;76.90;;;;;;5008618;28;20057;-72
2022/02/25 03:36:21;;;;;;;7.72;3.53;;;10.30;76.90;;;;;;5008089;28;20113;-73
2022/02/25 03:38:47;;;;;;;10.80;3.70;;;10.30;76.80;;;;;;5008334;28;20061;-72
2022/02/25 03:41:13;;;;;;;14.88;3.40;;;10.30;77.30;;;;;;5006962;28;20018;-71
2022/02/25 03:43:39;;;;;;;10.18;3.00;;;10.30;76.90;;;;;;5008399;28;20096;-72
2022/02/25 03:46:04;;;;;;;9.27;3.35;;;10.30;76.70;;;;;;5007860;28;20034;-72
2022/02/25 03:48:30;;;;;;;17.95;3.50;;;10.30;76.80;;;;;;5008561;28;20030;-72
2022/02/25 03:50:55;;;;;;;12.95;3.83;;;10.30;76.80;;;;;;5006634;28;20037;-71
2022/02/25 03:53:21;;;;;;;10.48;3.72;;;10.30;76.90;;;;;;5008157;28;20042;-73
2022/02/25 03:55:46;;;;;;;7.88;3.10;;;10.30;76.90;;;;;;5007648;28;20104;-72
2022/02/25 03:58:12;;;;;;;7.00;3.45;;;10.30;77.00;;;;;;5016607;28;20064;-72
2022/02/25 04:00:37;;;;;;;8.73;3.20;;;10.30;76.80;;;;;;5001989;28;20547;-71
2022/02/25 04:03:03;;;;;;;8.82;3.35;;;10.30;76.50;;;;;;5007297;28;20045;-72
2022/02/25 04:05:29;;;;;;;9.63;3.60;;;10.30;76.70;;;;;;5022598;28;20026;-71
2022/02/25 04:07:54;;;;;;;10.38;3.47;;;10.30;76.50;;;;;;5006730;28;20100;-73
2022/02/25 04:10:20;;;;;;;23.02;4.68;;;10.30;76.60;;;;;;5006614;28;20511;-72
2022/02/25 04:12:46;;;;;;;10.73;3.50;;;10.30;76.70;;;;;;5007678;28;20030;-71
2022/02/25 04:15:11;;;;;;;9.38;3.40;;;10.30;76.80;;;;;;5007471;28;20408;-72
2022/02/25 04:17:37;;;;;;;16.02;4.18;;;10.30;76.60;;;;;;5014099;28;20052;-72
2022/02/25 04:20:04;;;;;;;11.43;3.20;;;10.30;76.70;;;;;;5009819;28;20124;-72
2022/02/25 04:22:29;;;;;;;10.32;3.45;;;10.30;76.60;;;;;;5009429;28;20042;-73
2022/02/25 04:24:55;;;;;;;9.32;3.35;;;10.30;76.60;;;;;;4989336;28;20025;-72
2022/02/25 04:27:21;;;;;;;8.90;3.10;;;10.30;76.70;;;;;;5000520;28;20029;-71
2022/02/25 04:29:47;;;;;;;11.55;3.55;;;10.30;76.50;;;;;;5006279;28;20480;-72
2022/02/25 04:32:12;;;;;;;8.10;3.15;;;10.30;76.60;;;;;;4986502;28;20583;-72
2022/02/25 04:34:38;;;;;;;9.85;3.03;;;10.30;76.80;;;;;;4988124;28;20034;-72
2022/02/25 04:37:04;;;;;;;9.18;3.03;;;10.30;76.70;;;;;;5006720;28;20806;-71
2022/02/25 04:39:30;;;;;;;11.20;3.60;;;10.30;76.60;;;;;;5004850;28;20053;-72
2022/02/25 04:41:55;;;;;;;9.77;3.00;;;10.30;76.40;;;;;;5006584;28;20073;-72
2022/02/25 04:44:22;;;;;;;8.80;2.92;;;10.30;76.40;;;;;;5006544;28;20048;-72
2022/02/25 04:46:47;;;;;;;8.35;3.25;;;10.30;76.60;;;;;;4986113;28;20034;-71
2022/02/25 04:49:13;;;;;;;8.90;3.47;;;10.30;76.60;;;;;;4970176;28;20748;-71
2022/02/25 04:51:39;;;;;;;7.43;3.10;;;10.30;76.50;;;;;;4986278;28;20039;-71
2022/02/25 04:54:05;;;;;;;9.05;3.00;;;10.30;76.40;;;;;;4988964;28;20137;-71
2022/02/25 04:56:30;;;;;;;11.02;3.40;;;10.30;76.40;;;;;;4988754;28;20120;-71
2022/02/25 04:58:56;;;;;;;8.63;3.15;;;10.30;76.50;;;;;;4985921;28;20039;-72
2022/02/25 05:01:22;;;;;;;11.20;3.10;;;10.30;76.30;;;;;;5006189;28;20545;-71
2022/02/25 05:03:47;;;;;;;10.40;3.00;;;10.30;76.40;;;;;;4988590;28;20030;-73
2022/02/25 05:06:13;;;;;;;8.60;2.85;;;10.30;76.30;;;;;;4988374;28;20022;-72
2022/02/25 05:08:38;;;;;;;12.07;2.75;;;10.30;76.40;;;;;;5005599;28;20060;-72
2022/02/25 05:11:04;;;;;;;12.27;3.28;;;10.30;76.40;;;;;;4989000;28;20026;-72
2022/02/25 05:13:29;;;;;;;9.73;2.75;;;10.30;76.40;;;;;;5005959;28;20427;-71
2022/02/25 05:21:24;;;;;;;12.75;3.22;;;10.20;76.10;;;;;;5006446;28;20073;-73
2022/02/25 05:23:49;;;;;;;16.90;3.58;;;10.20;76.20;;;;;;5005539;28;20029;-72
2022/02/25 05:26:15;;;;;;;22.48;4.10;;;10.30;76.40;;;;;;5006156;28;20032;-73
2022/02/25 05:28:41;;;;;;;14.65;3.40;;;10.20;76.10;;;;;;5005107;28;20686;-72
2022/02/25 05:31:07;;;;;;;13.82;3.05;;;10.20;76.10;;;;;;5004475;28;20488;-72
2022/02/25 05:33:33;;;;;;;10.40;2.97;;;10.20;76.20;;;;;;5006240;28;20030;-72
2022/02/25 05:35:58;;;;;;;9.93;2.92;;;10.20;76.20;;;;;;5004194;28;20030;-71
2022/02/25 05:38:24;;;;;;;11.85;3.10;;;10.20;76.30;;;;;;5003106;28;20508;-72
2022/02/25 05:40:50;;;;;;;9.40;2.97;;;10.30;76.20;;;;;;5004272;28;20061;-72
2022/02/25 05:43:15;;;;;;;9.00;2.97;;;10.20;76.20;;;;;;5005918;28;20057;-72
2022/02/25 05:45:41;;;;;;;11.30;3.45;;;10.20;76.20;;;;;;5000773;28;20826;-71
2022/02/25 05:48:06;;;;;;;13.60;2.83;;;10.20;76.20;;;;;;4985283;28;20027;-72
2022/02/25 05:50:32;;;;;;;7.80;2.83;;;10.20;76.10;;;;;;5001280;28;20451;-71
2022/02/25 05:52:58;;;;;;;9.15;2.78;;;10.20;76.20;;;;;;5007146;28;20038;-72
2022/02/25 05:55:24;;;;;;;7.65;2.40;;;10.20;76.20;;;;;;5001987;28;20042;-73
2022/02/25 05:57:51;;;;;;;7.80;2.45;;;10.20;76.20;;;;;;4997646;28;20064;-73
2022/02/25 06:00:18;;;;;;;9.45;2.83;;;10.20;76.50;;;;;;5003945;28;20030;-73
2022/02/25 06:02:46;;;;;;;9.68;3.00;;;10.20;76.10;;;;;;5021979;28;20064;-73
2022/02/25 06:05:12;;;;;;;8.68;2.65;;;10.20;76.20;;;;;;5005897;28;20069;-73
2022/02/25 06:07:37;;;;;;;11.02;2.97;;;10.20;76.20;;;;;;5005930;28;20037;-74
2022/02/25 06:10:04;;;;;;;8.82;2.75;;;10.20;76.20;;;;;;5006047;28;20057;-74
2022/02/25 06:12:29;;;;;;;11.23;3.03;;;10.20;76.10;;;;;;5006187;28;20029;-73
2022/02/25 06:14:55;;;;;;;8.45;3.08;;;10.20;76.30;;;;;;5004657;28;20420;-73
2022/02/25 06:17:21;;;;;;;8.63;2.72;;;10.20;76.10;;;;;;5001521;28;20100;-74
2022/02/25 06:19:46;;;;;;;8.68;2.63;;;10.20;76.10;;;;;;5007676;28;20146;-73
2022/02/25 06:22:12;;;;;;;6.03;2.60;;;10.20;76.20;;;;;;5014563;28;20383;-73
2022/02/25 06:24:37;;;;;;;7.45;2.58;;;10.20;76.00;;;;;;5005107;28;20028;-73
2022/02/25 06:27:03;;;;;;;6.10;2.35;;;10.20;76.10;;;;;;5005359;28;20034;-73
2022/02/25 06:29:29;;;;;;;6.90;2.58;;;10.20;76.00;;;;;;5006039;28;20087;-73
2022/02/25 06:31:54;;;;;;;7.32;2.72;;;10.20;76.00;;;;;;5004811;28;20030;-74
2022/02/25 06:34:20;;;;;;;7.95;2.28;;;10.20;76.00;;;;;;5021226;28;20029;-73
2022/02/25 06:36:46;;;;;;;6.20;2.40;;;10.20;75.90;;;;;;5004306;28;20022;-73
2022/02/25 06:39:11;;;;;;;7.13;2.38;;;10.20;76.20;;;;;;5004725;28;20018;-73
2022/02/25 06:41:38;;;;;;;7.30;2.97;;;10.20;76.00;;;;;;5006361;28;20444;-73
2022/02/25 06:44:04;;;;;;;8.45;3.00;;;10.20;75.20;;;;;;5003866;28;20010;-73
2022/02/25 06:46:29;;;;;;;7.65;2.45;;;10.20;75.50;;;;;;5004756;28;20507;-74
2022/02/25 06:48:55;;;;;;;9.32;2.67;;;10.20;75.70;;;;;;5004974;28;20034;-74
2022/02/25 06:51:20;;;;;;;6.80;2.20;;;10.20;75.70;;;;;;5004933;28;20013;-73
2022/02/25 06:53:46;;;;;;;8.15;2.50;;;10.20;75.90;;;;;;5004841;28;20109;-74
2022/02/25 06:56:12;;;;;;;6.28;2.20;;;10.20;76.00;;;;;;5005742;28;20040;-73
2022/02/25 06:58:38;;;;;;;10.55;2.60;;;10.20;76.00;;;;;;5005933;28;20477;-73
2022/02/25 07:01:05;;;;;;;7.10;2.55;;;10.20;76.00;;;;;;5004747;28;20018;-73
2022/02/25 07:03:32;;;;;;;8.70;2.33;;;10.10;75.90;;;;;;5021501;28;20018;-74
2022/02/25 07:05:57;;;;;;;7.38;2.20;;;10.20;75.90;;;;;;5005472;28;20022;-74
2022/02/25 07:08:23;;;;;;;6.25;2.42;;;10.20;75.80;;;;;;5006346;28;20029;-74
2022/02/25 07:10:49;;;;;;;8.10;2.42;;;10.20;75.70;;;;;;5005078;28;20022;-73
2022/02/25 07:13:15;;;;;;;6.35;2.10;;;10.10;75.40;;;;;;5001739;28;20025;-74
2022/02/25 07:15:42;;;;;;;6.85;2.10;;;10.10;75.40;;;;;;5005621;28;20030;-73
2022/02/25 07:18:08;;;;;;;5.85;1.90;;;10.20;75.30;;;;;;5005137;28;20485;-74
2022/02/25 07:20:35;;;;;;;6.05;1.83;;;10.10;75.30;;;;;;5004837;28;20117;-74
2022/02/25 07:23:01;;;;;;;6.10;2.00;;;10.20;75.40;;;;;;5004651;28;20022;-73
2022/02/25 07:25:26;;;;;;;7.10;2.10;;;10.20;75.50;;;;;;5005856;28;20152;-73
2022/02/25 07:27:52;;;;;;;6.38;1.98;;;10.20;75.90;;;;;;5004728;28;20026;-74
2022/02/25 07:30:17;;;;;;;8.30;2.05;;;10.20;75.30;;;;;;5005843;28;20037;-76
2022/02/25 07:32:43;;;;;;;6.13;2.03;;;10.20;75.30;;;;;;4992543;28;20141;-74
2022/02/25 07:35:11;;;;;;;7.90;2.25;;;10.20;75.50;;;;;;4984722;28;20062;-75
2022/02/25 07:37:37;;;;;;;9.38;2.22;;;10.10;75.40;;;;;;4985770;28;20030;-72
2022/02/25 07:40:04;;;;;;;9.20;2.22;;;10.20;75.90;;;;;;5002918;28;20042;-73
2022/02/25 07:42:30;;;;;;;12.10;2.67;;;10.20;75.60;;;;;;5005941;28;20112;-74
2022/02/25 07:44:55;;;;;;;11.15;2.85;;;10.10;74.30;;;;;;5008163;28;20101;-74
2022/02/25 07:47:22;;;;;;;10.23;2.30;;;10.00;69.60;;;;;;5008416;28;20026;-73
2022/02/25 07:49:48;;;;;;;20.27;3.80;;;9.80;67.60;;;;;;5007660;28;20061;-72
2022/02/25 07:52:14;;;;;;;20.92;2.92;;;9.70;67.00;;;;;;5005951;28;20030;-73
2022/02/25 07:54:40;;;;;;;19.20;3.38;;;9.70;66.80;;;;;;5008716;28;20133;-74
2022/02/25 07:57:06;;;;;;;12.32;2.88;;;9.70;67.00;;;;;;5007446;28;20112;-75
2022/02/25 07:59:31;;;;;;;11.20;2.63;;;9.70;67.50;;;;;;5007606;28;20037;-74
2022/02/25 08:01:58;;;;;;;12.02;2.50;;;9.80;68.70;;;;;;5007739;28;20076;-74
2022/02/25 08:04:24;;;;;;;11.75;2.50;;;9.80;69.60;;;;;;5008442;28;20022;-75
2022/02/25 08:06:52;;;;;;;9.32;2.55;;;9.90;70.50;;;;;;5003173;28;20027;-74
2022/02/25 08:09:21;;;;;;;9.38;2.40;;;9.90;71.10;;;;;;5004619;28;20364;-74
2022/02/25 08:11:48;;;;;;;8.63;2.30;;;9.90;71.40;;;;;;5008466;28;20025;-73
2022/02/25 08:14:13;;;;;;;11.85;2.60;;;9.90;71.80;;;;;;5008461;28;20049;-73
2022/02/25 08:16:39;;;;;;;9.90;2.45;;;10.00;72.10;;;;;;5009198;28;20038;-74
2022/02/25 08:19:06;;;;;;;7.55;2.15;;;10.00;72.30;;;;;;5007777;28;20052;-73
2022/02/25 08:21:32;;;;;;;11.73;2.30;;;10.00;72.50;;;;;;5007519;28;20057;-74
2022/02/25 08:23:58;;;;;;;10.65;2.00;;;10.00;72.90;;;;;;5008426;28;20511;-74
2022/02/25 08:26:23;;;;;;;8.35;2.17;;;10.00;73.10;;;;;;5007561;28;20036;-74
2022/02/25 08:28:49;;;;;;;9.80;2.00;;;10.00;73.30;;;;;;5008587;28;20034;-73
2022/02/25 08:31:14;;;;;;;10.57;2.38;;;10.10;73.60;;;;;;5007766;28;20580;-74
2022/02/25 08:33:41;;;;;;;11.77;2.55;;;10.10;73.90;;;;;;5007302;28;20552;-74
2022/02/25 08:36:07;;;;;;;12.95;2.80;;;10.10;74.10;;;;;;5006998;28;20416;-74
2022/02/25 08:38:33;;;;;;;11.65;2.50;;;10.10;74.30;;;;;;5007313;28;20029;-74
2022/02/25 08:40:59;;;;;;;12.02;2.53;;;10.10;74.30;;;;;;5007417;28;20789;-74
2022/02/25 08:43:24;;;;;;;12.95;2.83;;;10.10;74.30;;;;;;5007382;28;20034;-74
2022/02/25 08:45:50;;;;;;;9.20;2.33;;;10.10;74.50;;;;;;5006979;28;20026;-73
2022/02/25 08:48:16;;;;;;;7.88;2.22;;;10.10;74.80;;;;;;5008428;28;20631;-73
2022/02/25 08:50:42;;;;;;;7.68;2.22;;;10.00;74.70;;;;;;5007380;28;20084;-74
2022/02/25 08:53:08;;;;;;;9.70;2.30;;;10.00;74.80;;;;;;5008695;28;20484;-74
2022/02/25 08:55:34;;;;;;;8.35;2.10;;;10.10;75.00;;;;;;5007102;28;20695;-74
2022/02/25 08:58:00;;;;;;;11.88;2.40;;;10.00;74.90;;;;;;5008423;28;20651;-74
2022/02/25 09:00:26;;;;;;;11.70;2.50;;;10.10;74.90;;;;;;5008465;28;20026;-74
2022/02/25 09:02:52;;;;;;;12.15;2.40;;;10.10;74.60;;;;;;5008234;28;20234;-73
2022/02/25 09:05:19;;;;;;;11.15;2.90;;;10.00;74.40;;;;;;5008097;28;20409;-73
2022/02/25 09:07:45;;;;;;;9.63;2.38;;;10.00;74.60;;;;;;5007061;28;20026;-73
2022/02/25 09:10:13;;;;;;;8.93;3.17;;;10.00;74.80;;;;;;5008422;28;20565;-75
2022/02/25 09:12:39;;;;;;;11.02;2.45;;;10.00;75.10;;;;;;5006660;28;20021;-74
2022/02/25 09:15:07;;;;;;;8.55;2.22;;;10.00;75.10;;;;;;5007650;28;20026;-74
2022/02/25 09:17:33;;;;;;;8.60;2.28;;;10.00;75.30;;;;;;5006990;28;20516;-74
2022/02/25 09:19:59;;;;;;;7.45;2.38;;;10.00;75.30;;;;;;5023233;28;20044;-74
2022/02/25 09:22:25;;;;;;;9.00;2.40;;;10.00;75.30;;;;;;5006852;28;20034;-74
2022/02/25 09:24:51;;;;;;;8.65;2.35;;;10.10;75.50;;;;;;5006403;28;20969;-74
2022/02/25 09:27:16;;;;;;;10.25;2.20;;;10.00;75.50;;;;;;5006879;28;20033;-74
2022/02/25 09:29:42;;;;;;;10.30;2.70;;;10.00;75.60;;;;;;5008101;28;20041;-75
2022/02/25 09:32:08;;;;;;;8.27;2.55;;;10.00;75.70;;;;;;5007957;28;20030;-74
2022/02/25 09:34:35;;;;;;;11.30;2.78;;;10.00;75.60;;;;;;5023113;28;20382;-75
2022/02/25 09:37:01;;;;;;;11.88;2.75;;;10.00;75.70;;;;;;5023348;28;20036;-75
2022/02/25 09:39:27;;;;;;;8.45;2.30;;;10.00;75.90;;;;;;5006489;28;20034;-74
2022/02/25 09:41:56;;;;;;;7.63;2.50;;;10.10;76.00;;;;;;5007923;28;20045;-75
2022/02/25 09:44:23;;;;;;;9.15;2.50;;;10.00;75.90;;;;;;5005940;28;20030;-73
2022/02/25 09:46:48;;;;;;;8.90;2.55;;;10.00;76.00;;;;;;5007710;28;20022;-75
2022/02/25 09:49:14;;;;;;;7.70;2.80;;;10.00;76.00;;;;;;5022302;28;20022;-74
2022/02/25 09:51:40;;;;;;;8.75;2.60;;;10.00;76.00;;;;;;5007608;28;20037;-74
2022/02/25 09:54:06;;;;;;;9.27;2.55;;;10.10;76.20;;;;;;5007055;28;20432;-74
2022/02/25 09:56:33;;;;;;;7.38;2.13;;;10.00;76.20;;;;;;5006663;28;20056;-74
2022/02/25 09:58:59;;;;;;;10.95;2.95;;;10.00;76.20;;;;;;5006193;28;20037;-75
2022/02/25 10:01:31;;;;;;;7.28;2.40;;;10.00;76.30;;;;;;5005564;28;20029;-75
2022/02/25 10:03:56;;;;;;;8.70;2.55;;;10.00;76.40;;;;;;5007544;28;20378;-74
2022/02/25 10:06:29;;;;;;;8.10;2.40;;;10.00;76.40;;;;;;5006746;28;20081;-74
2022/02/25 10:08:56;;;;;;;7.10;2.28;;;10.00;76.40;;;;;;5007579;28;20026;-75
2022/02/25 10:11:22;;;;;;;8.57;2.63;;;10.00;76.50;;;;;;5006124;28;20029;-74
2022/02/25 10:13:48;;;;;;;7.63;2.28;;;10.00;76.60;;;;;;5007422;28;20077;-75
2022/02/25 10:16:14;;;;;;;7.78;2.40;;;10.00;76.50;;;;;;5006940;28;20030;-74
2022/02/25 10:18:39;;;;;;;7.10;2.47;;;10.00;76.50;;;;;;5007314;28;20388;-75
2022/02/25 10:21:09;;;;;;;8.52;2.47;;;10.00;76.50;;;;;;5005653;28;20444;-76
2022/02/25 10:23:44;;;;;;;8.82;2.60;;;10.10;76.60;;;;;;5018071;28;20034;-74
2022/02/25 10:26:17;;;;;;;7.32;2.58;;;10.10;76.70;;;;;;5020310;28;20129;-74
2022/02/25 10:28:46;;;;;;;36.00;5.20;;;10.10;76.70;;;;;;5022406;28;20026;-74
2022/02/25 10:31:32;;;;;;;24.40;3.33;;;10.10;76.80;;;;;;5005685;28;20053;-74
2022/02/25 10:34:13;;;;;;;16.58;2.65;;;10.10;76.90;;;;;;5006440;28;20030;-72
2022/02/25 10:36:45;;;;;;;9.90;2.78;;;10.10;77.00;;;;;;5004615;28;20032;-73
2022/02/25 10:39:19;;;;;;;9.48;2.33;;;10.10;77.10;;;;;;5004673;28;20096;-73
2022/02/25 10:42:03;;;;;;;11.80;2.90;;;10.10;77.10;;;;;;5004656;28;20022;-74
2022/02/25 10:44:38;;;;;;;16.95;3.40;;;10.10;77.30;;;;;;5013387;28;20030;-74
2022/02/25 10:47:16;;;;;;;15.65;2.90;;;10.10;77.30;;;;;;5010535;28;20026;-72
2022/02/25 10:49:41;;;;;;;11.98;3.08;;;10.10;77.10;;;;;;5011903;28;20499;-74
2022/02/25 10:52:29;;;;;;;14.75;3.63;;;10.10;77.00;;;;;;5011851;28;20069;-74
2022/02/25 10:54:56;;;;;;;13.75;2.85;;;10.10;76.90;;;;;;5011518;28;20030;-75
2022/02/25 10:57:22;;;;;;;12.02;2.80;;;10.10;76.90;;;;;;5011759;28;20022;-75
2022/02/25 10:59:48;;;;;;;12.45;3.20;;;10.10;76.90;;;;;;5011719;28;20036;-74
2022/02/25 11:02:29;;;;;;;8.32;2.33;;;10.10;76.90;;;;;;5010429;28;20026;-76
2022/02/25 11:05:12;;;;;;;10.23;2.55;;;10.10;77.00;;;;;;5011421;28;20022;-75
2022/02/25 11:07:41;;;;;;;9.88;2.33;;;10.10;77.00;;;;;;5011642;28;20034;-71
2022/02/25 11:10:08;;;;;;;9.27;2.60;;;10.10;76.90;;;;;;5010688;28;20117;-75
2022/02/25 11:12:39;;;;;;;9.80;2.95;;;10.10;76.90;;;;;;5011712;28;20026;-75
2022/02/25 11:15:10;;;;;;;11.82;2.85;;;10.10;77.10;;;;;;5010009;28;20505;-75
2022/02/25 11:17:37;;;;;;;10.10;2.70;;;10.10;77.20;;;;;;5012748;28;20103;-75
2022/02/25 11:20:05;;;;;;;11.10;2.78;;;10.10;77.10;;;;;;5013730;28;20291;-75
2022/02/25 11:22:36;;;;;;;8.60;2.60;;;10.10;77.10;;;;;;5015176;28;20578;-74
2022/02/25 11:25:02;;;;;;;8.55;2.50;;;10.20;77.30;;;;;;5015081;28;20116;-75
2022/02/25 11:27:27;;;;;;;7.55;2.60;;;10.10;77.10;;;;;;5013996;28;20105;-74
2022/02/25 11:30:13;;;;;;;8.07;2.58;;;10.10;77.00;;;;;;5013965;28;20061;-74
2022/02/25 11:33:01;;;;;;;9.63;2.28;;;10.20;77.00;;;;;;5015149;28;20026;-75
2022/02/25 11:35:38;;;;;;;9.05;2.67;;;10.20;76.90;;;;;;5013387;28;20443;-75
2022/02/25 11:38:10;;;;;;;8.65;2.78;;;10.20;76.80;;;;;;5013731;28;20026;-75
2022/02/25 11:40:46;;;;;;;7.47;2.33;;;10.20;76.80;;;;;;5014915;28;20053;-75
2022/02/25 11:43:12;;;;;;;6.38;2.50;;;10.20;76.90;;;;;;5014832;28;20026;-73
2022/02/25 11:45:52;;;;;;;8.38;2.17;;;10.20;76.90;;;;;;5013241;28;20029;-75
2022/02/25 11:48:22;;;;;;;11.32;2.75;;;10.20;77.20;;;;;;5013477;28;20065;-75
2022/02/25 11:50:52;;;;;;;9.98;3.08;;;10.20;77.30;;;;;;5014897;28;20033;-74
2022/02/25 11:53:22;;;;;;;9.45;2.80;;;10.10;77.10;;;;;;5013473;28;20026;-74
2022/02/25 11:55:49;;;;;;;9.90;2.80;;;10.10;77.30;;;;;;5013012;28;20037;-75
2022/02/25 11:58:44;;;;;;;8.63;2.53;;;10.10;77.40;;;;;;5013564;28;20033;-75
2022/02/25 12:01:14;;;;;;;11.18;2.88;;;10.10;77.40;;;;;;5013286;28;20022;-74
2022/02/25 12:04:00;;;;;;;8.88;2.60;;;10.10;77.40;;;;;;5014487;28;20125;-74
2022/02/25 12:06:55;;;;;;;8.25;2.65;;;10.10;77.40;;;;;;5012924;28;20028;-76
2022/02/25 12:09:38;;;;;;;10.90;2.45;;;10.10;77.60;;;;;;5014133;28;20499;-75
2022/02/25 12:12:22;;;;;;;7.22;2.28;;;10.10;77.60;;;;;;5011896;28;20640;-74
2022/02/25 12:15:17;;;;;;;7.03;2.28;;;10.10;77.70;;;;;;5004324;28;20111;-76
2022/02/25 12:17:54;;;;;;;7.75;2.80;;;10.10;77.70;;;;;;4989491;28;20073;-74
2022/02/25 12:20:26;;;;;;;7.90;2.22;;;10.10;77.70;;;;;;4990948;28;20027;-73
2022/02/25 12:23:00;;;;;;;9.65;2.60;;;10.10;77.80;;;;;;5006461;28;20117;-76
2022/02/25 12:25:38;;;;;;;7.63;2.17;;;10.10;77.80;;;;;;5009075;28;20053;-75
2022/02/25 12:28:11;;;;;;;9.23;2.40;;;10.10;77.90;;;;;;5008657;28;20034;-75
2022/02/25 12:30:44;;;;;;;7.47;2.40;;;10.10;78.00;;;;;;5006917;28;20040;-74
2022/02/25 12:33:34;;;;;;;6.95;2.33;;;10.10;78.10;;;;;;5008292;28;20030;-77
2022/02/25 12:36:03;;;;;;;7.55;2.22;;;10.10;78.20;;;;;;5009527;28;20405;-74
2022/02/25 12:38:30;;;;;;;7.55;2.22;;;10.00;78.20;;;;;;5010634;28;20052;-74
2022/02/25 12:41:16;;;;;;;6.35;2.03;;;10.00;78.10;;;;;;5010972;28;20048;-77
2022/02/25 12:43:47;;;;;;;9.38;2.55;;;10.10;78.20;;;;;;5008427;28;20627;-78
2022/02/25 12:46:13;;;;;;;8.00;2.40;;;10.10;78.10;;;;;;5007251;28;20567;-77
2022/02/25 12:48:39;;;;;;;11.00;2.75;;;10.20;78.30;;;;;;5007662;28;20041;-75
2022/02/25 12:51:04;;;;;;;7.03;2.03;;;10.20;78.00;;;;;;5005616;28;20554;-74